sensor_id;sensor_type;location;lat;lon;timestamp;P1;durP1;ratioP1;P2;durP2;ratioP2
33862;SDS011;20158;51.436;-2.742;2024-02-21T00:01:02;4.40;;;1.65;;
33862;SDS011;20158;51.436;-2.742;2024-02-21T00:03:48;5.28;;;2.20;;
33862;SDS011;20158;51.436;-2.742;2024-02-21T00:06:33;4.72;;;1.63;;
33862;SDS011;20158;51.436;-2.742;2024-02-21T00:09:17;4.30;;;1.60;;
33862;SDS011;20158;51.436;-2.742;2024-02-21T00:12:03;4.45;;;1.75;;
33862;SDS011;20158;51.436;-2.742;2024-02-21T00:14:49;5.80;;;1.85;;
33862;SDS011;20158;51.436;-2.742;2024-02-21T00:17:33;5.03;;;1.98;;
33862;SDS011;20158;51.436;-2.742;2024-02-21T00:20:18;4.90;;;1.98;;
33862;SDS011;20158;51.436;-2.742;2024-02-21T00:23:02;6.25;;;2.30;;
33862;SDS011;20158;51.436;-2.742;2024-02-21T00:25:48;4.10;;;2.00;;
33862;SDS011;20158;51.436;-2.742;2024-02-21T00:28:33;4.20;;;1.80;;
33862;SDS011;20158;51.436;-2.742;2024-02-21T00:31:18;5.70;;;2.47;;
33862;SDS011;20158;51.436;-2.742;2024-02-21T00:34:02;7.47;;;2.38;;
33862;SDS011;20158;51.436;-2.742;2024-02-21T00:36:47;5.22;;;1.90;;
33862;SDS011;20158;51.436;-2.742;2024-02-21T00:39:32;4.45;;;2.08;;
33862;SDS011;20158;51.436;-2.742;2024-02-21T00:42:16;6.72;;;1.88;;
33862;SDS011;20158;51.436;-2.742;2024-02-21T00:45:02;5.30;;;2.17;;
33862;SDS011;20158;51.436;-2.742;2024-02-21T00:47:47;5.95;;;2.00;;
33862;SDS011;20158;51.436;-2.742;2024-02-21T00:50:31;7.05;;;2.30;;
33862;SDS011;20158;51.436;-2.742;2024-02-21T00:53:16;4.35;;;1.70;;
33862;SDS011;20158;51.436;-2.742;2024-02-21T00:56:00;4.22;;;1.98;;
33862;SDS011;20158;51.436;-2.742;2024-02-21T00:58:44;7.93;;;2.50;;
33862;SDS011;20158;51.436;-2.742;2024-02-21T01:01:31;5.32;;;1.90;;
33862;SDS011;20158;51.436;-2.742;2024-02-21T01:04:18;5.38;;;2.05;;
33862;SDS011;20158;51.436;-2.742;2024-02-21T01:07:03;3.78;;;2.15;;
33862;SDS011;20158;51.436;-2.742;2024-02-21T01:09:47;5.00;;;1.73;;
33862;SDS011;20158;51.436;-2.742;2024-02-21T01:12:32;6.15;;;2.05;;
33862;SDS011;20158;51.436;-2.742;2024-02-21T01:15:16;4.97;;;1.92;;
33862;SDS011;20158;51.436;-2.742;2024-02-21T01:18:01;5.75;;;1.63;;
33862;SDS011;20158;51.436;-2.742;2024-02-21T01:20:49;5.72;;;2.22;;
33862;SDS011;20158;51.436;-2.742;2024-02-21T01:23:34;5.72;;;1.80;;
33862;SDS011;20158;51.436;-2.742;2024-02-21T01:26:19;5.60;;;1.75;;
33862;SDS011;20158;51.436;-2.742;2024-02-21T01:29:03;6.72;;;1.95;;
33862;SDS011;20158;51.436;-2.742;2024-02-21T01:31:48;4.63;;;1.77;;
33862;SDS011;20158;51.436;-2.742;2024-02-21T01:34:33;3.45;;;1.45;;
33862;SDS011;20158;51.436;-2.742;2024-02-21T01:37:18;2.55;;;1.42;;
33862;SDS011;20158;51.436;-2.742;2024-02-21T01:40:02;6.25;;;1.95;;
33862;SDS011;20158;51.436;-2.742;2024-02-21T01:42:47;3.90;;;1.30;;
33862;SDS011;20158;51.436;-2.742;2024-02-21T01:45:32;3.50;;;1.35;;
33862;SDS011;20158;51.436;-2.742;2024-02-21T01:48:20;6.47;;;2.13;;
33862;SDS011;20158;51.436;-2.742;2024-02-21T01:51:06;7.00;;;2.30;;
33862;SDS011;20158;51.436;-2.742;2024-02-21T01:53:50;5.47;;;1.67;;
33862;SDS011;20158;51.436;-2.742;2024-02-21T01:56:35;5.00;;;1.58;;
33862;SDS011;20158;51.436;-2.742;2024-02-21T01:59:20;3.50;;;1.77;;
33862;SDS011;20158;51.436;-2.742;2024-02-21T02:02:06;3.45;;;1.55;;
33862;SDS011;20158;51.436;-2.742;2024-02-21T02:04:50;4.93;;;1.60;;
33862;SDS011;20158;51.436;-2.742;2024-02-21T02:07:36;4.93;;;1.75;;
33862;SDS011;20158;51.436;-2.742;2024-02-21T02:10:21;3.30;;;1.60;;
33862;SDS011;20158;51.436;-2.742;2024-02-21T02:13:06;4.03;;;1.65;;
33862;SDS011;20158;51.436;-2.742;2024-02-21T02:15:50;3.55;;;1.50;;
33862;SDS011;20158;51.436;-2.742;2024-02-21T02:18:35;5.88;;;2.65;;
33862;SDS011;20158;51.436;-2.742;2024-02-21T02:21:24;3.55;;;1.40;;
33862;SDS011;20158;51.436;-2.742;2024-02-21T02:24:16;7.97;;;1.70;;
33862;SDS011;20158;51.436;-2.742;2024-02-21T02:27:01;4.13;;;1.50;;
33862;SDS011;20158;51.436;-2.742;2024-02-21T02:29:45;5.22;;;1.50;;
33862;SDS011;20158;51.436;-2.742;2024-02-21T02:32:30;3.40;;;1.65;;
33862;SDS011;20158;51.436;-2.742;2024-02-21T02:35:15;5.55;;;2.22;;
33862;SDS011;20158;51.436;-2.742;2024-02-21T02:38:00;6.55;;;2.42;;
33862;SDS011;20158;51.436;-2.742;2024-02-21T02:40:44;4.85;;;1.30;;
33862;SDS011;20158;51.436;-2.742;2024-02-21T02:43:29;4.47;;;1.92;;
33862;SDS011;20158;51.436;-2.742;2024-02-21T02:46:13;4.25;;;1.83;;
33862;SDS011;20158;51.436;-2.742;2024-02-21T02:48:58;5.55;;;1.73;;
33862;SDS011;20158;51.436;-2.742;2024-02-21T02:51:43;3.75;;;1.55;;
33862;SDS011;20158;51.436;-2.742;2024-02-21T02:54:27;5.75;;;1.52;;
33862;SDS011;20158;51.436;-2.742;2024-02-21T02:57:13;4.63;;;1.98;;
33862;SDS011;20158;51.436;-2.742;2024-02-21T02:59:57;6.78;;;2.22;;
33862;SDS011;20158;51.436;-2.742;2024-02-21T03:02:43;3.08;;;1.42;;
33862;SDS011;20158;51.436;-2.742;2024-02-21T03:05:30;4.07;;;1.55;;
33862;SDS011;20158;51.436;-2.742;2024-02-21T03:08:15;6.95;;;1.77;;
33862;SDS011;20158;51.436;-2.742;2024-02-21T03:10:59;4.80;;;1.80;;
33862;SDS011;20158;51.436;-2.742;2024-02-21T03:13:44;7.55;;;2.53;;
33862;SDS011;20158;51.436;-2.742;2024-02-21T03:16:29;3.42;;;1.95;;
33862;SDS011;20158;51.436;-2.742;2024-02-21T03:19:13;3.45;;;1.65;;
33862;SDS011;20158;51.436;-2.742;2024-02-21T03:21:58;4.30;;;1.58;;
33862;SDS011;20158;51.436;-2.742;2024-02-21T03:24:45;3.60;;;1.67;;
33862;SDS011;20158;51.436;-2.742;2024-02-21T03:27:29;5.07;;;2.50;;
33862;SDS011;20158;51.436;-2.742;2024-02-21T03:30:14;5.22;;;2.30;;
33862;SDS011;20158;51.436;-2.742;2024-02-21T03:32:59;6.35;;;2.00;;
33862;SDS011;20158;51.436;-2.742;2024-02-21T03:35:44;4.28;;;2.47;;
33862;SDS011;20158;51.436;-2.742;2024-02-21T03:38:29;4.90;;;1.48;;
33862;SDS011;20158;51.436;-2.742;2024-02-21T03:41:13;3.17;;;1.90;;
33862;SDS011;20158;51.436;-2.742;2024-02-21T03:43:57;3.55;;;1.70;;
33862;SDS011;20158;51.436;-2.742;2024-02-21T03:46:42;5.47;;;2.20;;
33862;SDS011;20158;51.436;-2.742;2024-02-21T03:49:27;4.53;;;1.73;;
33862;SDS011;20158;51.436;-2.742;2024-02-21T03:52:11;2.63;;;1.40;;
33862;SDS011;20158;51.436;-2.742;2024-02-21T03:54:55;4.85;;;1.80;;
33862;SDS011;20158;51.436;-2.742;2024-02-21T03:57:40;3.67;;;1.83;;
33862;SDS011;20158;51.436;-2.742;2024-02-21T04:00:24;4.85;;;2.00;;
33862;SDS011;20158;51.436;-2.742;2024-02-21T04:03:10;4.50;;;1.27;;
33862;SDS011;20158;51.436;-2.742;2024-02-21T04:05:54;3.20;;;1.40;;
33862;SDS011;20158;51.436;-2.742;2024-02-21T04:08:42;3.63;;;1.45;;
33862;SDS011;20158;51.436;-2.742;2024-02-21T04:11:26;3.97;;;1.70;;
33862;SDS011;20158;51.436;-2.742;2024-02-21T04:14:12;3.22;;;1.40;;
33862;SDS011;20158;51.436;-2.742;2024-02-21T04:16:57;3.95;;;1.60;;
33862;SDS011;20158;51.436;-2.742;2024-02-21T04:19:41;2.60;;;1.80;;
33862;SDS011;20158;51.436;-2.742;2024-02-21T04:22:26;5.28;;;1.63;;
33862;SDS011;20158;51.436;-2.742;2024-02-21T04:25:11;1.65;;;1.42;;
33862;SDS011;20158;51.436;-2.742;2024-02-21T04:27:56;6.43;;;2.03;;
33862;SDS011;20158;51.436;-2.742;2024-02-21T04:30:41;5.05;;;1.58;;
33862;SDS011;20158;51.436;-2.742;2024-02-21T04:33:26;2.47;;;1.20;;
33862;SDS011;20158;51.436;-2.742;2024-02-21T04:36:10;2.95;;;1.33;;
33862;SDS011;20158;51.436;-2.742;2024-02-21T04:38:55;3.88;;;1.55;;
33862;SDS011;20158;51.436;-2.742;2024-02-21T04:41:40;3.13;;;1.65;;
33862;SDS011;20158;51.436;-2.742;2024-02-21T04:44:24;3.38;;;1.40;;
33862;SDS011;20158;51.436;-2.742;2024-02-21T04:47:09;1.83;;;1.35;;
33862;SDS011;20158;51.436;-2.742;2024-02-21T04:49:54;2.67;;;1.67;;
33862;SDS011;20158;51.436;-2.742;2024-02-21T04:52:39;5.93;;;2.50;;
33862;SDS011;20158;51.436;-2.742;2024-02-21T04:55:23;3.95;;;1.50;;
33862;SDS011;20158;51.436;-2.742;2024-02-21T04:58:09;2.95;;;1.33;;
33862;SDS011;20158;51.436;-2.742;2024-02-21T05:00:53;3.63;;;1.58;;
33862;SDS011;20158;51.436;-2.742;2024-02-21T05:03:39;3.58;;;1.50;;
33862;SDS011;20158;51.436;-2.742;2024-02-21T05:06:23;4.10;;;1.80;;
33862;SDS011;20158;51.436;-2.742;2024-02-21T05:09:08;3.70;;;1.27;;
33862;SDS011;20158;51.436;-2.742;2024-02-21T05:11:53;3.70;;;1.27;;
33862;SDS011;20158;51.436;-2.742;2024-02-21T05:14:38;2.92;;;1.25;;
33862;SDS011;20158;51.436;-2.742;2024-02-21T05:17:22;2.63;;;1.10;;
33862;SDS011;20158;51.436;-2.742;2024-02-21T05:20:07;2.85;;;1.13;;
33862;SDS011;20158;51.436;-2.742;2024-02-21T05:22:52;2.83;;;1.35;;
33862;SDS011;20158;51.436;-2.742;2024-02-21T05:25:37;2.53;;;1.27;;
33862;SDS011;20158;51.436;-2.742;2024-02-21T05:28:21;3.60;;;1.33;;
33862;SDS011;20158;51.436;-2.742;2024-02-21T05:31:06;3.95;;;1.30;;
33862;SDS011;20158;51.436;-2.742;2024-02-21T05:33:50;3.78;;;1.52;;
33862;SDS011;20158;51.436;-2.742;2024-02-21T05:36:36;2.30;;;1.20;;
33862;SDS011;20158;51.436;-2.742;2024-02-21T05:39:20;4.15;;;1.40;;
33862;SDS011;20158;51.436;-2.742;2024-02-21T05:42:07;4.85;;;1.45;;
33862;SDS011;20158;51.436;-2.742;2024-02-21T05:44:51;3.15;;;1.20;;
33862;SDS011;20158;51.436;-2.742;2024-02-21T05:47:36;3.45;;;1.50;;
33862;SDS011;20158;51.436;-2.742;2024-02-21T05:50:21;1.77;;;1.15;;
33862;SDS011;20158;51.436;-2.742;2024-02-21T05:53:07;2.22;;;1.70;;
33862;SDS011;20158;51.436;-2.742;2024-02-21T05:55:52;1.90;;;1.52;;
33862;SDS011;20158;51.436;-2.742;2024-02-21T05:58:36;4.22;;;1.55;;
33862;SDS011;20158;51.436;-2.742;2024-02-21T06:01:21;2.83;;;1.20;;
33862;SDS011;20158;51.436;-2.742;2024-02-21T06:04:06;4.72;;;1.38;;
33862;SDS011;20158;51.436;-2.742;2024-02-21T06:06:50;2.30;;;1.30;;
33862;SDS011;20158;51.436;-2.742;2024-02-21T06:09:35;2.55;;;1.25;;
33862;SDS011;20158;51.436;-2.742;2024-02-21T06:12:19;4.60;;;1.20;;
33862;SDS011;20158;51.436;-2.742;2024-02-21T06:15:04;3.10;;;1.27;;
33862;SDS011;20158;51.436;-2.742;2024-02-21T06:17:49;2.92;;;1.00;;
33862;SDS011;20158;51.436;-2.742;2024-02-21T06:20:34;2.70;;;1.10;;
33862;SDS011;20158;51.436;-2.742;2024-02-21T06:23:20;3.40;;;1.95;;
33862;SDS011;20158;51.436;-2.742;2024-02-21T06:26:05;2.55;;;1.25;;
33862;SDS011;20158;51.436;-2.742;2024-02-21T06:28:49;2.92;;;1.30;;
33862;SDS011;20158;51.436;-2.742;2024-02-21T06:31:35;4.03;;;0.80;;
33862;SDS011;20158;51.436;-2.742;2024-02-21T06:34:19;1.70;;;0.82;;
33862;SDS011;20158;51.436;-2.742;2024-02-21T06:37:06;3.67;;;1.10;;
33862;SDS011;20158;51.436;-2.742;2024-02-21T06:39:51;1.40;;;0.65;;
33862;SDS011;20158;51.436;-2.742;2024-02-21T06:42:36;2.15;;;1.95;;
33862;SDS011;20158;51.436;-2.742;2024-02-21T06:45:20;3.38;;;1.10;;
33862;SDS011;20158;51.436;-2.742;2024-02-21T06:48:05;1.88;;;0.88;;
33862;SDS011;20158;51.436;-2.742;2024-02-21T06:50:50;1.65;;;0.85;;
33862;SDS011;20158;51.436;-2.742;2024-02-21T06:53:37;2.97;;;0.88;;
33862;SDS011;20158;51.436;-2.742;2024-02-21T06:56:24;2.28;;;1.15;;
33862;SDS011;20158;51.436;-2.742;2024-02-21T06:59:12;4.57;;;1.77;;
33862;SDS011;20158;51.436;-2.742;2024-02-21T07:01:59;3.75;;;1.20;;
33862;SDS011;20158;51.436;-2.742;2024-02-21T07:04:44;3.67;;;1.23;;
33862;SDS011;20158;51.436;-2.742;2024-02-21T07:07:29;3.35;;;1.08;;
33862;SDS011;20158;51.436;-2.742;2024-02-21T07:10:13;14.60;;;3.30;;
33862;SDS011;20158;51.436;-2.742;2024-02-21T07:12:57;49.58;;;11.18;;
33862;SDS011;20158;51.436;-2.742;2024-02-21T07:15:42;41.28;;;10.30;;
33862;SDS011;20158;51.436;-2.742;2024-02-21T07:18:27;41.70;;;10.57;;
33862;SDS011;20158;51.436;-2.742;2024-02-21T07:21:12;40.10;;;9.25;;
33862;SDS011;20158;51.436;-2.742;2024-02-21T07:23:56;36.50;;;9.32;;
33862;SDS011;20158;51.436;-2.742;2024-02-21T07:26:42;28.98;;;6.63;;
33862;SDS011;20158;51.436;-2.742;2024-02-21T07:29:29;30.98;;;7.75;;
33862;SDS011;20158;51.436;-2.742;2024-02-21T07:32:14;26.17;;;5.97;;
33862;SDS011;20158;51.436;-2.742;2024-02-21T07:34:58;24.60;;;6.22;;
33862;SDS011;20158;51.436;-2.742;2024-02-21T07:37:43;19.27;;;6.18;;
33862;SDS011;20158;51.436;-2.742;2024-02-21T07:40:27;19.23;;;5.93;;
33862;SDS011;20158;51.436;-2.742;2024-02-21T07:43:11;20.45;;;5.55;;
33862;SDS011;20158;51.436;-2.742;2024-02-21T07:45:56;19.55;;;5.13;;
33862;SDS011;20158;51.436;-2.742;2024-02-21T07:48:41;20.92;;;5.32;;
33862;SDS011;20158;51.436;-2.742;2024-02-21T07:51:27;15.32;;;4.85;;
33862;SDS011;20158;51.436;-2.742;2024-02-21T07:54:12;16.95;;;5.65;;
33862;SDS011;20158;51.436;-2.742;2024-02-21T07:56:57;17.20;;;4.88;;
33862;SDS011;20158;51.436;-2.742;2024-02-21T07:59:41;10.32;;;3.55;;
33862;SDS011;20158;51.436;-2.742;2024-02-21T08:02:26;14.23;;;4.65;;
33862;SDS011;20158;51.436;-2.742;2024-02-21T08:05:10;12.85;;;4.78;;
33862;SDS011;20158;51.436;-2.742;2024-02-21T08:07:56;12.63;;;4.03;;
33862;SDS011;20158;51.436;-2.742;2024-02-21T08:10:41;12.32;;;3.35;;
33862;SDS011;20158;51.436;-2.742;2024-02-21T08:13:25;11.32;;;3.05;;
33862;SDS011;20158;51.436;-2.742;2024-02-21T08:16:12;9.77;;;3.63;;
33862;SDS011;20158;51.436;-2.742;2024-02-21T08:18:56;14.40;;;3.47;;
33862;SDS011;20158;51.436;-2.742;2024-02-21T08:21:41;9.60;;;3.10;;
33862;SDS011;20158;51.436;-2.742;2024-02-21T08:24:25;8.13;;;2.65;;
33862;SDS011;20158;51.436;-2.742;2024-02-21T08:27:13;7.22;;;3.03;;
33862;SDS011;20158;51.436;-2.742;2024-02-21T08:29:58;8.85;;;2.63;;
33862;SDS011;20158;51.436;-2.742;2024-02-21T08:32:42;9.32;;;4.22;;
33862;SDS011;20158;51.436;-2.742;2024-02-21T08:35:27;7.38;;;2.45;;
33862;SDS011;20158;51.436;-2.742;2024-02-21T08:38:12;4.80;;;2.10;;
33862;SDS011;20158;51.436;-2.742;2024-02-21T08:40:56;6.60;;;2.40;;
33862;SDS011;20158;51.436;-2.742;2024-02-21T08:43:41;4.40;;;1.77;;
33862;SDS011;20158;51.436;-2.742;2024-02-21T08:46:25;5.10;;;1.55;;
33862;SDS011;20158;51.436;-2.742;2024-02-21T08:49:10;4.53;;;1.63;;
33862;SDS011;20158;51.436;-2.742;2024-02-21T08:51:55;5.55;;;1.80;;
33862;SDS011;20158;51.436;-2.742;2024-02-21T08:54:40;5.68;;;1.50;;
33862;SDS011;20158;51.436;-2.742;2024-02-21T08:57:25;6.68;;;2.35;;
33862;SDS011;20158;51.436;-2.742;2024-02-21T09:00:10;4.75;;;1.80;;
33862;SDS011;20158;51.436;-2.742;2024-02-21T09:02:56;3.28;;;1.58;;
33862;SDS011;20158;51.436;-2.742;2024-02-21T09:05:41;4.88;;;1.45;;
33862;SDS011;20158;51.436;-2.742;2024-02-21T09:08:26;5.97;;;1.88;;
33862;SDS011;20158;51.436;-2.742;2024-02-21T09:11:10;6.00;;;1.90;;
33862;SDS011;20158;51.436;-2.742;2024-02-21T09:13:55;4.00;;;2.13;;
33862;SDS011;20158;51.436;-2.742;2024-02-21T09:16:40;3.35;;;1.50;;
33862;SDS011;20158;51.436;-2.742;2024-02-21T09:19:25;2.92;;;1.10;;
33862;SDS011;20158;51.436;-2.742;2024-02-21T09:22:09;3.42;;;2.00;;
33862;SDS011;20158;51.436;-2.742;2024-02-21T09:24:53;3.10;;;1.10;;
33862;SDS011;20158;51.436;-2.742;2024-02-21T09:27:38;3.47;;;1.40;;
33862;SDS011;20158;51.436;-2.742;2024-02-21T09:30:22;5.32;;;1.55;;
33862;SDS011;20158;51.436;-2.742;2024-02-21T09:33:07;3.95;;;1.10;;
33862;SDS011;20158;51.436;-2.742;2024-02-21T09:35:52;5.78;;;1.40;;
33862;SDS011;20158;51.436;-2.742;2024-02-21T09:38:36;2.33;;;0.90;;
33862;SDS011;20158;51.436;-2.742;2024-02-21T09:41:27;3.70;;;0.90;;
33862;SDS011;20158;51.436;-2.742;2024-02-21T09:44:12;2.88;;;0.93;;
33862;SDS011;20158;51.436;-2.742;2024-02-21T09:47:09;1.80;;;0.60;;
33862;SDS011;20158;51.436;-2.742;2024-02-21T09:49:57;1.30;;;0.73;;
33862;SDS011;20158;51.436;-2.742;2024-02-21T09:52:43;2.28;;;0.90;;
33862;SDS011;20158;51.436;-2.742;2024-02-21T09:55:29;1.50;;;0.70;;
33862;SDS011;20158;51.436;-2.742;2024-02-21T09:58:18;3.70;;;1.40;;
33862;SDS011;20158;51.436;-2.742;2024-02-21T10:01:03;2.25;;;0.57;;
33862;SDS011;20158;51.436;-2.742;2024-02-21T10:03:49;1.52;;;0.73;;
33862;SDS011;20158;51.436;-2.742;2024-02-21T10:06:34;1.48;;;0.63;;
33862;SDS011;20158;51.436;-2.742;2024-02-21T10:09:26;1.23;;;0.73;;
33862;SDS011;20158;51.436;-2.742;2024-02-21T10:12:12;2.60;;;0.70;;
33862;SDS011;20158;51.436;-2.742;2024-02-21T10:15:04;0.80;;;0.52;;
33862;SDS011;20158;51.436;-2.742;2024-02-21T10:17:50;1.00;;;0.40;;
33862;SDS011;20158;51.436;-2.742;2024-02-21T10:20:43;1.58;;;0.60;;
33862;SDS011;20158;51.436;-2.742;2024-02-21T10:23:27;1.85;;;0.68;;
33862;SDS011;20158;51.436;-2.742;2024-02-21T10:26:12;1.85;;;0.73;;
33862;SDS011;20158;51.436;-2.742;2024-02-21T10:28:58;0.60;;;0.43;;
33862;SDS011;20158;51.436;-2.742;2024-02-21T10:31:46;1.77;;;0.60;;
33862;SDS011;20158;51.436;-2.742;2024-02-21T10:34:30;1.85;;;0.60;;
33862;SDS011;20158;51.436;-2.742;2024-02-21T10:37:15;0.95;;;0.50;;
33862;SDS011;20158;51.436;-2.742;2024-02-21T10:40:00;1.15;;;0.45;;
33862;SDS011;20158;51.436;-2.742;2024-02-21T10:42:45;1.95;;;0.55;;
33862;SDS011;20158;51.436;-2.742;2024-02-21T10:48:22;1.48;;;0.50;;
33862;SDS011;20158;51.436;-2.742;2024-02-21T10:51:17;1.70;;;0.65;;
33862;SDS011;20158;51.436;-2.742;2024-02-21T10:57:05;1.15;;;0.43;;
33862;SDS011;20158;51.436;-2.742;2024-02-21T10:59:50;1.85;;;0.60;;
33862;SDS011;20158;51.436;-2.742;2024-02-21T11:02:37;1.25;;;0.55;;
33862;SDS011;20158;51.436;-2.742;2024-02-21T11:05:24;1.55;;;0.30;;
33862;SDS011;20158;51.436;-2.742;2024-02-21T11:08:09;1.38;;;0.82;;
33862;SDS011;20158;51.436;-2.742;2024-02-21T11:10:58;3.03;;;0.50;;
33862;SDS011;20158;51.436;-2.742;2024-02-21T11:13:44;1.40;;;0.55;;
33862;SDS011;20158;51.436;-2.742;2024-02-21T11:16:34;1.25;;;0.60;;
33862;SDS011;20158;51.436;-2.742;2024-02-21T11:19:23;2.00;;;0.30;;
33862;SDS011;20158;51.436;-2.742;2024-02-21T11:22:16;0.82;;;0.40;;
33862;SDS011;20158;51.436;-2.742;2024-02-21T11:25:07;0.65;;;0.30;;
33862;SDS011;20158;51.436;-2.742;2024-02-21T11:28:04;1.35;;;0.40;;
33862;SDS011;20158;51.436;-2.742;2024-02-21T11:30:50;1.33;;;0.60;;
33862;SDS011;20158;51.436;-2.742;2024-02-21T11:33:35;2.03;;;0.40;;
33862;SDS011;20158;51.436;-2.742;2024-02-21T11:36:26;2.00;;;1.50;;
33862;SDS011;20158;51.436;-2.742;2024-02-21T11:39:11;0.73;;;0.55;;
33862;SDS011;20158;51.436;-2.742;2024-02-21T11:42:13;3.08;;;0.60;;
33862;SDS011;20158;51.436;-2.742;2024-02-21T11:44:59;0.40;;;0.30;;
33862;SDS011;20158;51.436;-2.742;2024-02-21T11:47:44;4.93;;;2.40;;
33862;SDS011;20158;51.436;-2.742;2024-02-21T11:50:30;3.15;;;1.77;;
33862;SDS011;20158;51.436;-2.742;2024-02-21T11:53:15;2.92;;;1.30;;
33862;SDS011;20158;51.436;-2.742;2024-02-21T11:56:01;2.60;;;1.10;;
33862;SDS011;20158;51.436;-2.742;2024-02-21T11:58:46;1.90;;;0.90;;
33862;SDS011;20158;51.436;-2.742;2024-02-21T12:01:31;1.48;;;0.93;;
33862;SDS011;20158;51.436;-2.742;2024-02-21T12:04:16;3.05;;;0.90;;
33862;SDS011;20158;51.436;-2.742;2024-02-21T12:07:03;1.30;;;0.57;;
33862;SDS011;20158;51.436;-2.742;2024-02-21T12:09:48;1.20;;;0.68;;
33862;SDS011;20158;51.436;-2.742;2024-02-21T12:12:33;1.38;;;0.47;;
33862;SDS011;20158;51.436;-2.742;2024-02-21T12:15:20;1.25;;;0.50;;
33862;SDS011;20158;51.436;-2.742;2024-02-21T12:18:04;0.95;;;0.50;;
33862;SDS011;20158;51.436;-2.742;2024-02-21T12:20:49;1.90;;;0.60;;
33862;SDS011;20158;51.436;-2.742;2024-02-21T12:23:34;1.20;;;0.38;;
33862;SDS011;20158;51.436;-2.742;2024-02-21T12:26:18;3.00;;;0.70;;
33862;SDS011;20158;51.436;-2.742;2024-02-21T12:29:03;0.73;;;0.47;;
33862;SDS011;20158;51.436;-2.742;2024-02-21T12:31:48;1.55;;;0.45;;
33862;SDS011;20158;51.436;-2.742;2024-02-21T12:34:33;1.85;;;0.60;;
33862;SDS011;20158;51.436;-2.742;2024-02-21T12:37:18;1.65;;;0.50;;
33862;SDS011;20158;51.436;-2.742;2024-02-21T12:40:05;3.88;;;0.80;;
33862;SDS011;20158;51.436;-2.742;2024-02-21T12:42:50;1.33;;;0.40;;
33862;SDS011;20158;51.436;-2.742;2024-02-21T12:45:36;0.50;;;0.30;;
33862;SDS011;20158;51.436;-2.742;2024-02-21T12:48:21;1.80;;;0.47;;
33862;SDS011;20158;51.436;-2.742;2024-02-21T12:51:06;0.70;;;0.40;;
33862;SDS011;20158;51.436;-2.742;2024-02-21T12:53:51;0.55;;;0.30;;
33862;SDS011;20158;51.436;-2.742;2024-02-21T12:56:35;0.50;;;0.30;;
33862;SDS011;20158;51.436;-2.742;2024-02-21T12:59:20;1.45;;;0.30;;
33862;SDS011;20158;51.436;-2.742;2024-02-21T13:02:05;0.40;;;0.30;;
33862;SDS011;20158;51.436;-2.742;2024-02-21T13:04:50;0.30;;;0.20;;
33862;SDS011;20158;51.436;-2.742;2024-02-21T13:07:35;0.75;;;0.30;;
33862;SDS011;20158;51.436;-2.742;2024-02-21T13:10:19;1.02;;;0.40;;
33862;SDS011;20158;51.436;-2.742;2024-02-21T13:13:04;0.20;;;0.20;;
33862;SDS011;20158;51.436;-2.742;2024-02-21T13:15:48;1.52;;;0.30;;
33862;SDS011;20158;51.436;-2.742;2024-02-21T13:18:34;0.80;;;0.30;;
33862;SDS011;20158;51.436;-2.742;2024-02-21T13:21:21;0.38;;;0.32;;
33862;SDS011;20158;51.436;-2.742;2024-02-21T13:24:05;0.73;;;0.40;;
33862;SDS011;20158;51.436;-2.742;2024-02-21T13:26:50;2.60;;;0.38;;
33862;SDS011;20158;51.436;-2.742;2024-02-21T13:29:35;2.20;;;0.65;;
33862;SDS011;20158;51.436;-2.742;2024-02-21T13:32:19;0.50;;;0.30;;
33862;SDS011;20158;51.436;-2.742;2024-02-21T13:35:04;1.05;;;0.40;;
33862;SDS011;20158;51.436;-2.742;2024-02-21T13:37:49;0.82;;;0.30;;
33862;SDS011;20158;51.436;-2.742;2024-02-21T13:40:34;0.50;;;0.30;;
33862;SDS011;20158;51.436;-2.742;2024-02-21T13:43:18;0.45;;;0.30;;
33862;SDS011;20158;51.436;-2.742;2024-02-21T13:46:03;0.52;;;0.30;;
33862;SDS011;20158;51.436;-2.742;2024-02-21T13:48:54;0.38;;;0.20;;
33862;SDS011;20158;51.436;-2.742;2024-02-21T13:51:48;0.90;;;0.38;;
33862;SDS011;20158;51.436;-2.742;2024-02-21T13:54:32;0.85;;;0.32;;
33862;SDS011;20158;51.436;-2.742;2024-02-21T13:57:17;0.43;;;0.40;;
33862;SDS011;20158;51.436;-2.742;2024-02-21T14:00:02;0.30;;;0.20;;
33862;SDS011;20158;51.436;-2.742;2024-02-21T14:02:56;1.17;;;0.40;;
33862;SDS011;20158;51.436;-2.742;2024-02-21T14:05:42;0.80;;;0.32;;
33862;SDS011;20158;51.436;-2.742;2024-02-21T14:08:26;1.00;;;0.28;;
33862;SDS011;20158;51.436;-2.742;2024-02-21T14:11:11;1.02;;;0.30;;
33862;SDS011;20158;51.436;-2.742;2024-02-21T14:13:56;2.05;;;0.50;;
33862;SDS011;20158;51.436;-2.742;2024-02-21T14:16:41;1.17;;;0.40;;
33862;SDS011;20158;51.436;-2.742;2024-02-21T14:19:25;1.60;;;0.40;;
33862;SDS011;20158;51.436;-2.742;2024-02-21T14:22:10;2.45;;;1.02;;
33862;SDS011;20158;51.436;-2.742;2024-02-21T14:24:55;1.65;;;0.68;;
33862;SDS011;20158;51.436;-2.742;2024-02-21T14:27:40;0.73;;;0.60;;
33862;SDS011;20158;51.436;-2.742;2024-02-21T14:30:25;3.45;;;1.20;;
33862;SDS011;20158;51.436;-2.742;2024-02-21T14:33:09;6.78;;;2.42;;
33862;SDS011;20158;51.436;-2.742;2024-02-21T14:35:54;4.32;;;1.23;;
33862;SDS011;20158;51.436;-2.742;2024-02-21T14:38:39;4.97;;;1.00;;
33862;SDS011;20158;51.436;-2.742;2024-02-21T14:41:25;3.55;;;1.05;;
33862;SDS011;20158;51.436;-2.742;2024-02-21T14:44:09;3.58;;;1.80;;
33862;SDS011;20158;51.436;-2.742;2024-02-21T14:46:54;3.58;;;1.50;;
33862;SDS011;20158;51.436;-2.742;2024-02-21T14:49:38;5.50;;;1.38;;
33862;SDS011;20158;51.436;-2.742;2024-02-21T14:52:23;4.60;;;1.40;;
33862;SDS011;20158;51.436;-2.742;2024-02-21T14:55:13;3.80;;;1.58;;
33862;SDS011;20158;51.436;-2.742;2024-02-21T14:57:58;7.40;;;1.52;;
33862;SDS011;20158;51.436;-2.742;2024-02-21T15:00:42;7.13;;;1.98;;
33862;SDS011;20158;51.436;-2.742;2024-02-21T15:03:27;7.03;;;2.30;;
33862;SDS011;20158;51.436;-2.742;2024-02-21T15:06:11;7.95;;;1.67;;
33862;SDS011;20158;51.436;-2.742;2024-02-21T15:08:56;6.60;;;1.83;;
33862;SDS011;20158;51.436;-2.742;2024-02-21T15:11:41;7.32;;;2.42;;
33862;SDS011;20158;51.436;-2.742;2024-02-21T15:14:26;8.05;;;2.58;;
33862;SDS011;20158;51.436;-2.742;2024-02-21T15:17:11;10.55;;;3.20;;
33862;SDS011;20158;51.436;-2.742;2024-02-21T15:19:56;7.80;;;2.60;;
33862;SDS011;20158;51.436;-2.742;2024-02-21T15:22:43;6.18;;;2.10;;
33862;SDS011;20158;51.436;-2.742;2024-02-21T15:25:27;10.30;;;2.40;;
33862;SDS011;20158;51.436;-2.742;2024-02-21T15:28:14;7.68;;;2.10;;
33862;SDS011;20158;51.436;-2.742;2024-02-21T15:30:58;6.50;;;2.08;;
33862;SDS011;20158;51.436;-2.742;2024-02-21T15:33:43;8.80;;;2.30;;
33862;SDS011;20158;51.436;-2.742;2024-02-21T15:36:27;11.00;;;2.00;;
33862;SDS011;20158;51.436;-2.742;2024-02-21T15:39:12;11.50;;;2.85;;
33862;SDS011;20158;51.436;-2.742;2024-02-21T15:41:57;9.27;;;3.15;;
33862;SDS011;20158;51.436;-2.742;2024-02-21T15:44:41;7.82;;;2.38;;
33862;SDS011;20158;51.436;-2.742;2024-02-21T15:47:25;10.50;;;2.42;;
33862;SDS011;20158;51.436;-2.742;2024-02-21T15:50:09;8.55;;;2.55;;
33862;SDS011;20158;51.436;-2.742;2024-02-21T15:52:54;11.88;;;2.95;;
33862;SDS011;20158;51.436;-2.742;2024-02-21T15:55:39;12.50;;;3.53;;
33862;SDS011;20158;51.436;-2.742;2024-02-21T15:58:23;11.98;;;2.67;;
33862;SDS011;20158;51.436;-2.742;2024-02-21T16:01:08;11.18;;;2.90;;
33862;SDS011;20158;51.436;-2.742;2024-02-21T16:03:55;7.50;;;2.85;;
33862;SDS011;20158;51.436;-2.742;2024-02-21T16:06:42;13.15;;;3.47;;
33862;SDS011;20158;51.436;-2.742;2024-02-21T16:09:28;12.20;;;3.28;;
33862;SDS011;20158;51.436;-2.742;2024-02-21T16:12:12;12.98;;;3.50;;
33862;SDS011;20158;51.436;-2.742;2024-02-21T16:14:58;10.23;;;2.60;;
33862;SDS011;20158;51.436;-2.742;2024-02-21T16:17:42;12.35;;;4.03;;
33862;SDS011;20158;51.436;-2.742;2024-02-21T16:20:27;14.25;;;3.30;;
33862;SDS011;20158;51.436;-2.742;2024-02-21T16:23:11;9.15;;;3.55;;
33862;SDS011;20158;51.436;-2.742;2024-02-21T16:25:57;14.45;;;3.42;;